createdAt,value
2022-09-25T00:02:25.658Z,14.28
2022-09-25T00:07:27.242Z,14.45
2022-09-25T00:12:28.690Z,14.38
2022-09-25T00:17:30.130Z,14.35
2022-09-25T00:22:31.530Z,14.38
2022-09-25T00:27:32.933Z,14.29
2022-09-25T00:32:34.706Z,14.30
2022-09-25T00:37:37.141Z,14.28
2022-09-25T00:42:39.742Z,14.34
2022-09-25T00:48:06.497Z,14.33
2022-09-25T00:53:27.258Z,14.49
2022-09-25T00:58:30.896Z,14.45
2022-09-25T01:03:32.431Z,14.34
2022-09-25T01:08:34.805Z,14.37
2022-09-25T01:13:36.678Z,14.33
2022-09-25T01:19:01.774Z,14.37
2022-09-25T01:24:41.197Z,14.47
2022-09-25T01:29:53.675Z,14.54
2022-09-25T01:35:10.623Z,14.46
2022-09-25T01:40:28.540Z,14.38
2022-09-25T01:45:39.081Z,14.50
2022-09-25T01:50:47.141Z,14.35
2022-09-25T01:55:54.491Z,14.46
2022-09-25T02:01:04.294Z,14.49
2022-09-25T02:06:08.923Z,14.50
2022-09-25T02:11:11.087Z,14.38
2022-09-25T02:16:19.209Z,14.42
2022-09-25T02:21:32.839Z,14.49
2022-09-25T02:26:35.248Z,14.58
2022-09-25T02:31:42.204Z,14.49
2022-09-25T02:36:43.982Z,14.48
2022-09-25T02:42:00.369Z,14.52
2022-09-25T02:47:07.563Z,14.37
2022-09-25T02:52:38.166Z,14.50
2022-09-25T02:58:00.143Z,14.52
2022-09-25T03:03:03.141Z,14.47
2022-09-25T03:08:06.307Z,14.49
2022-09-25T03:13:22.659Z,14.44
2022-09-25T03:18:25.003Z,14.51
2022-09-25T03:23:26.507Z,14.39
2022-09-25T03:28:28.113Z,14.61
2022-09-25T03:33:33.552Z,14.57
2022-09-25T03:38:35.091Z,14.53
2022-09-25T03:43:38.233Z,14.50
2022-09-25T03:48:41.186Z,14.51
2022-09-25T03:53:42.587Z,14.43
2022-09-25T03:58:44.349Z,14.57
2022-09-25T04:03:45.831Z,14.49
2022-09-25T04:08:48.544Z,14.39
2022-09-25T04:13:50.270Z,14.55
2022-09-25T04:18:51.727Z,14.59
2022-09-25T04:23:53.207Z,14.52
2022-09-25T04:28:54.743Z,14.53
2022-09-25T04:33:56.264Z,14.35
2022-09-25T04:38:57.732Z,14.53
2022-09-25T04:43:59.279Z,14.73
2022-09-25T04:49:00.839Z,14.69
2022-09-25T04:54:02.351Z,14.70
2022-09-25T04:59:03.907Z,14.49
2022-09-25T05:04:08.600Z,14.40
2022-09-25T05:09:10.682Z,14.46
2022-09-25T05:14:12.155Z,14.54
2022-09-25T05:19:13.607Z,14.70
2022-09-25T05:24:15.047Z,14.73
2022-09-25T05:29:16.488Z,14.61
2022-09-25T05:34:17.972Z,14.49
2022-09-25T05:39:19.460Z,14.54
2022-09-25T05:44:20.867Z,14.46
2022-09-25T05:49:23.212Z,14.47
2022-09-25T05:54:24.785Z,14.51
2022-09-25T05:59:26.177Z,14.59
2022-09-25T06:04:27.594Z,14.68
2022-09-25T06:09:29.062Z,14.59
2022-09-25T06:14:30.490Z,14.42
2022-09-25T06:19:31.938Z,14.54
2022-09-25T06:24:33.414Z,14.51
2022-09-25T06:29:35.361Z,14.61
2022-09-25T06:34:36.866Z,14.67
2022-09-25T06:39:38.306Z,14.68
2022-09-25T06:44:39.711Z,14.73
2022-09-25T06:49:41.130Z,14.64
2022-09-25T06:54:44.299Z,14.66
2022-09-25T06:59:46.078Z,14.68
2022-09-25T07:04:50.480Z,14.77
2022-09-25T07:09:52.005Z,14.72
2022-09-25T07:14:53.545Z,14.68
2022-09-25T07:19:55.252Z,14.76
2022-09-25T07:24:56.721Z,14.89
2022-09-25T07:29:58.187Z,14.79
2022-09-25T07:34:59.599Z,14.84
2022-09-25T07:40:01.319Z,14.95
2022-09-25T07:45:03.069Z,14.81
2022-09-25T07:50:04.808Z,14.82
2022-09-25T07:55:06.850Z,14.82
2022-09-25T08:00:08.879Z,14.99
2022-09-25T08:05:11.158Z,14.83
2022-09-25T08:10:12.596Z,14.76
2022-09-25T08:15:14.146Z,14.86
2022-09-25T08:20:15.725Z,14.94
2022-09-25T08:25:17.193Z,14.89
2022-09-25T08:30:18.816Z,14.80
2022-09-25T08:35:20.715Z,14.84
2022-09-25T08:40:27.038Z,14.72
2022-09-25T08:45:39.942Z,14.71
2022-09-25T08:50:41.913Z,14.73
2022-09-25T08:55:43.604Z,14.76
2022-09-25T09:00:45.625Z,14.72
2022-09-25T09:05:51.873Z,14.80
2022-09-25T09:11:06.305Z,14.62
2022-09-25T09:16:28.801Z,14.81
2022-09-25T09:21:56.453Z,14.55
2022-09-25T09:26:57.854Z,14.60
2022-09-25T09:32:14.117Z,14.73
2022-09-25T09:37:25.933Z,14.81
2022-09-25T09:42:39.654Z,14.75
2022-09-25T09:47:54.676Z,14.68
2022-09-25T09:53:03.788Z,14.79
2022-09-25T09:58:33.292Z,14.75
2022-09-25T10:03:38.735Z,14.47
2022-09-25T10:08:40.268Z,14.27
2022-09-25T10:13:42.741Z,14.57
2022-09-25T10:18:48.936Z,14.58
2022-09-25T10:23:54.996Z,14.66
2022-09-25T10:28:58.809Z,14.70
2022-09-25T10:34:05.288Z,14.67
2022-09-25T10:39:43.096Z,14.68
2022-09-25T10:44:45.324Z,14.75
2022-09-25T10:49:47.780Z,14.83
2022-09-25T10:54:49.338Z,14.78
2022-09-25T10:59:52.858Z,14.74
2022-09-25T11:04:56.951Z,14.76
2022-09-25T11:10:00.352Z,14.72
2022-09-25T11:15:06.081Z,14.58
2022-09-25T11:20:16.542Z,14.69
2022-09-25T11:25:28.486Z,14.73
2022-09-25T11:30:40.351Z,14.53
2022-09-25T11:36:06.050Z,14.59
2022-09-25T11:41:16.982Z,14.65
2022-09-25T11:46:50.790Z,14.66
2022-09-25T11:52:10.442Z,14.82
2022-09-25T11:57:34.386Z,14.83
2022-09-25T12:03:04.224Z,14.88
2022-09-25T12:08:39.169Z,14.84
2022-09-25T12:13:46.677Z,14.77
2022-09-25T12:19:22.333Z,14.95
2022-09-25T12:24:49.140Z,14.97
2022-09-25T12:30:05.228Z,14.98
2022-09-25T12:35:32.817Z,14.93
2022-09-25T12:40:40.489Z,14.97
2022-09-25T12:45:49.138Z,15.04
2022-09-25T12:51:19.814Z,14.90
2022-09-25T12:56:46.747Z,14.79
2022-09-25T13:02:10.741Z,14.92
2022-09-25T13:07:27.777Z,14.87
2022-09-25T13:12:39.514Z,14.75
2022-09-25T13:17:41.785Z,14.95
2022-09-25T13:22:43.309Z,14.95
2022-09-25T13:27:46.569Z,15.09
2022-09-25T13:32:55.355Z,15.08
2022-09-25T13:38:11.272Z,15.14
2022-09-25T13:43:24.232Z,15.15
2022-09-25T13:48:31.616Z,15.18
2022-09-25T13:53:57.719Z,15.04
2022-09-25T13:59:02.010Z,15.18
2022-09-25T14:04:31.709Z,15.18
2022-09-25T14:09:34.330Z,15.13
2022-09-25T14:14:56.047Z,15.28
2022-09-25T14:20:00.016Z,15.18
2022-09-25T14:25:01.766Z,15.19
2022-09-25T14:30:11.357Z,15.22
2022-09-25T14:35:37.527Z,15.19
2022-09-25T14:41:01.342Z,15.19
2022-09-25T14:46:10.306Z,15.15
2022-09-25T14:51:25.531Z,15.19
2022-09-25T14:56:30.131Z,15.04
2022-09-25T15:01:32.990Z,15.21
2022-09-25T15:06:37.012Z,15.12
2022-09-25T15:11:43.447Z,15.16
2022-09-25T15:16:45.109Z,14.99
2022-09-25T15:21:47.793Z,15.13
2022-09-25T15:26:55.010Z,15.19
2022-09-25T15:31:56.643Z,15.17
2022-09-25T15:37:30.503Z,15.18
2022-09-25T15:42:32.835Z,15.22
2022-09-25T15:47:34.209Z,14.98
2022-09-25T15:52:35.789Z,14.90
2022-09-25T15:57:40.019Z,15.13
2022-09-25T16:02:53.233Z,14.99
2022-09-25T16:08:16.386Z,14.93
2022-09-25T16:13:24.483Z,14.89
2022-09-25T16:18:39.090Z,14.95
2022-09-25T16:23:41.584Z,14.93
2022-09-25T16:28:59.678Z,14.81
2022-09-25T16:34:01.309Z,14.78
2022-09-25T16:39:08.570Z,14.72
2022-09-25T16:44:21.048Z,14.48
2022-09-25T16:49:24.410Z,14.53
2022-09-25T16:54:28.450Z,14.44
2022-09-25T16:59:30.532Z,14.61
2022-09-25T17:04:33.860Z,14.55
2022-09-25T17:09:35.527Z,14.29
2022-09-25T17:14:37.019Z,14.13
2022-09-25T17:19:38.532Z,14.05
2022-09-25T17:24:39.959Z,13.77
2022-09-25T17:29:42.455Z,13.95
2022-09-25T17:34:46.969Z,13.56
2022-09-25T17:39:49.716Z,13.63
2022-09-25T17:44:51.130Z,13.64
2022-09-25T17:49:52.585Z,13.72
2022-09-25T17:54:54.077Z,13.76
2022-09-25T17:59:55.554Z,13.66
2022-09-25T18:04:56.949Z,13.85
2022-09-25T18:09:58.559Z,13.88
2022-09-25T18:15:00.090Z,13.51
2022-09-25T18:20:01.979Z,13.64
2022-09-25T18:25:04.075Z,13.73
2022-09-25T18:30:06.238Z,13.66
2022-09-25T18:35:09.004Z,13.64
2022-09-25T18:40:13.091Z,13.62
2022-09-25T18:45:15.201Z,13.69
2022-09-25T18:50:20.613Z,13.60
2022-09-25T18:55:22.671Z,13.55
2022-09-25T19:00:24.262Z,13.67
2022-09-25T19:05:25.872Z,13.69
2022-09-25T19:10:27.338Z,13.77
2022-09-25T19:15:29.017Z,13.72
2022-09-25T19:20:30.678Z,13.68
2022-09-25T19:25:32.143Z,13.65
2022-09-25T19:30:33.619Z,13.71
2022-09-25T19:35:34.984Z,13.46
2022-09-25T19:40:38.965Z,13.36
2022-09-25T19:45:40.447Z,13.59
2022-09-25T19:50:42.253Z,13.63
2022-09-25T19:55:43.667Z,13.16
2022-09-25T20:00:45.281Z,13.56
2022-09-25T20:05:46.902Z,13.22
2022-09-25T20:10:48.329Z,13.41
2022-09-25T20:15:49.818Z,13.01
2022-09-25T20:20:51.461Z,13.17
2022-09-25T20:25:53.054Z,13.09
2022-09-25T20:30:54.642Z,13.24
2022-09-25T20:35:59.868Z,13.10
2022-09-25T20:41:02.614Z,12.74
2022-09-25T20:46:09.810Z,12.64
2022-09-25T20:51:15.503Z,12.88
2022-09-25T20:56:17.653Z,12.68
2022-09-25T21:01:22.508Z,12.69
2022-09-25T21:06:26.663Z,12.68
2022-09-25T21:11:30.125Z,12.67
2022-09-25T21:16:33.126Z,12.47
2022-09-25T21:21:34.781Z,12.47
2022-09-25T21:26:36.418Z,12.34
2022-09-25T21:31:43.769Z,12.38
2022-09-25T21:36:48.598Z,11.99
2022-09-25T21:41:50.493Z,12.27
2022-09-25T21:46:52.051Z,12.03
2022-09-25T21:51:53.548Z,12.35
2022-09-25T21:56:55.056Z,11.72
2022-09-25T22:01:56.586Z,12.08
2022-09-25T22:06:58.038Z,12.30
2022-09-25T22:11:59.585Z,12.25
2022-09-25T22:17:01.172Z,12.27
2022-09-25T22:22:02.758Z,12.38
2022-09-25T22:27:04.174Z,12.36
2022-09-25T22:32:05.666Z,12.36
2022-09-25T22:37:07.124Z,12.32
2022-09-25T22:42:08.620Z,12.23
2022-09-25T22:47:10.083Z,12.28
2022-09-25T22:52:11.578Z,12.07
2022-09-25T22:57:13.009Z,11.90
2022-09-25T23:02:14.477Z,12.15
2022-09-25T23:07:15.927Z,12.21
2022-09-25T23:12:17.483Z,12.06
2022-09-25T23:17:19.017Z,12.16
2022-09-25T23:22:20.516Z,12.08
2022-09-25T23:27:21.997Z,12.10
2022-09-25T23:32:23.421Z,11.97
2022-09-25T23:37:24.919Z,11.89
2022-09-25T23:42:26.439Z,11.92
2022-09-25T23:47:27.846Z,11.90
2022-09-25T23:52:29.630Z,12.01
2022-09-25T23:57:31.174Z,11.73
